This is the latest recevied weather packets stored in our database for station/object E70ARA-3. If no packets are shown the sender has not sent any weather packets the latest 10 day(s).
| Time | Temp. | Humidity | Pressure | Rain* | Wind** | Luminosity | Snow |
|---|---|---|---|---|---|---|---|
| 1777571870 | 11.11° C | 41% | 1036 hPa | - | - | - | - |
| 1777570970 | 11.11° C | 39% | 1035.9 hPa | - | - | - | - |
| 1777570070 | 11.67° C | 33% | 1035.9 hPa | - | - | - | - |
| 1777569169 | 11.67° C | 33% | 1035.7 hPa | - | - | - | - |
| 1777568269 | 11.67° C | 32% | 1035.6 hPa | - | - | - | - |
| 1777567369 | 12.22° C | 33% | 1035.4 hPa | - | - | - | - |
| 1777566469 | 12.78° C | 32% | 1035.4 hPa | - | - | - | - |
| 1777565569 | 12.22° C | 33% | 1035.4 hPa | - | - | - | - |
| 1777564668 | 12.22° C | 33% | 1035.4 hPa | - | - | - | - |
| 1777563768 | 13.33° C | 32% | 1035.4 hPa | - | - | - | - |
| 1777562868 | 13.33° C | 35% | 1035.4 hPa | - | - | - | - |
| 1777561968 | 12.78° C | 37% | 1035.4 hPa | - | - | - | - |
| 1777561068 | 12.78° C | 34% | 1035.4 hPa | - | - | - | - |
| 1777560167 | 13.33° C | 36% | 1035.4 hPa | - | - | - | - |
| 1777559266 | 12.22° C | 35% | 1035.4 hPa | - | - | - | - |
| 1777558366 | 13.33° C | 35% | 1035.1 hPa | - | - | - | - |
| 1777557466 | 12.22° C | 36% | 1035.3 hPa | - | - | - | - |
| 1777556579 | 13.89° C | 35% | 1035.2 hPa | - | - | - | - |
| 1777555679 | 13.33° C | 35% | 1035.3 hPa | - | - | - | - |
| 1777554779 | 13.33° C | 37% | 1035.3 hPa | - | - | - | - |
| 1777553879 | 12.78° C | 38% | 1035.5 hPa | - | - | - | - |
| 1777551178 | 14.44° C | 38% | 1035.5 hPa | - | - | - | - |
| 1777550278 | 15° C | 33% | 1035.5 hPa | - | - | - | - |
| 1777549378 | 15° C | 36% | 1035.6 hPa | - | - | - | - |
| 1777548478 | 16.11° C | 37% | 1035.5 hPa | - | - | - | - |
* Rain since midnight (hover to see other rain measurements)
** Current wind speed in m/s (hover to see current wind gust speed)